sensor_id;sensor_type;location;lat;lon;timestamp;pressure;altitude;pressure_sealevel;temperature;humidity
40650;BME280;26342;42.826;23.992;2023-02-01T00:01:20;95389.84;;;0.85;100.00
40650;BME280;26342;42.826;23.992;2023-02-01T00:03:46;95390.78;;;0.71;100.00
40650;BME280;26342;42.826;23.992;2023-02-01T00:06:11;95392.41;;;0.65;100.00
40650;BME280;26342;42.826;23.992;2023-02-01T00:08:37;95386.72;;;0.62;100.00
40650;BME280;26342;42.826;23.992;2023-02-01T00:11:04;95384.72;;;0.64;100.00
40650;BME280;26342;42.826;23.992;2023-02-01T00:13:32;95398.66;;;0.71;100.00
40650;BME280;26342;42.826;23.992;2023-02-01T00:18:32;95402.88;;;0.59;100.00
40650;BME280;26342;42.826;23.992;2023-02-01T00:20:58;95397.81;;;0.57;100.00
40650;BME280;26342;42.826;23.992;2023-02-01T00:23:23;95394.19;;;0.58;100.00
40650;BME280;26342;42.826;23.992;2023-02-01T00:25:49;95399.84;;;0.62;100.00
40650;BME280;26342;42.826;23.992;2023-02-01T00:28:14;95397.22;;;0.62;100.00
40650;BME280;26342;42.826;23.992;2023-02-01T00:30:40;95408.34;;;0.64;100.00
40650;BME280;26342;42.826;23.992;2023-02-01T00:33:05;95396.19;;;0.56;100.00
40650;BME280;26342;42.826;23.992;2023-02-01T00:35:30;95403.06;;;0.57;100.00
40650;BME280;26342;42.826;23.992;2023-02-01T00:37:56;95400.81;;;0.54;100.00
40650;BME280;26342;42.826;23.992;2023-02-01T00:40:24;95395.16;;;0.50;100.00
40650;BME280;26342;42.826;23.992;2023-02-01T00:42:49;95390.72;;;0.51;100.00
40650;BME280;26342;42.826;23.992;2023-02-01T00:45:14;95387.91;;;0.59;100.00
40650;BME280;26342;42.826;23.992;2023-02-01T00:47:40;95393.16;;;0.59;100.00
40650;BME280;26342;42.826;23.992;2023-02-01T00:50:06;95389.34;;;0.62;100.00
40650;BME280;26342;42.826;23.992;2023-02-01T00:52:32;95383.88;;;0.63;100.00
40650;BME280;26342;42.826;23.992;2023-02-01T00:54:57;95383.56;;;0.73;100.00
40650;BME280;26342;42.826;23.992;2023-02-01T00:57:22;95375.47;;;0.74;100.00
40650;BME280;26342;42.826;23.992;2023-02-01T00:59:48;95376.09;;;0.83;100.00
40650;BME280;26342;42.826;23.992;2023-02-01T01:02:13;95376.91;;;0.83;100.00
40650;BME280;26342;42.826;23.992;2023-02-01T01:04:39;95370.06;;;0.89;100.00
40650;BME280;26342;42.826;23.992;2023-02-01T01:07:05;95365.03;;;0.94;100.00
40650;BME280;26342;42.826;23.992;2023-02-01T01:09:30;95362.56;;;0.79;100.00
40650;BME280;26342;42.826;23.992;2023-02-01T01:11:55;95367.63;;;0.81;100.00
40650;BME280;26342;42.826;23.992;2023-02-01T01:14:21;95361.16;;;0.83;100.00
40650;BME280;26342;42.826;23.992;2023-02-01T01:16:46;95360.59;;;0.88;100.00
40650;BME280;26342;42.826;23.992;2023-02-01T01:19:12;95364.22;;;0.87;100.00
40650;BME280;26342;42.826;23.992;2023-02-01T01:21:37;95363.81;;;0.90;100.00
40650;BME280;26342;42.826;23.992;2023-02-01T01:24:03;95366.25;;;0.92;100.00
40650;BME280;26342;42.826;23.992;2023-02-01T01:26:29;95368.25;;;0.90;100.00
40650;BME280;26342;42.826;23.992;2023-02-01T01:28:56;95366.84;;;0.87;100.00
40650;BME280;26342;42.826;23.992;2023-02-01T01:31:22;95366.81;;;0.80;100.00
40650;BME280;26342;42.826;23.992;2023-02-01T01:33:53;95361.72;;;0.79;100.00
40650;BME280;26342;42.826;23.992;2023-02-01T01:36:19;95365.19;;;0.79;100.00
40650;BME280;26342;42.826;23.992;2023-02-01T01:38:45;95367.63;;;0.81;100.00
40650;BME280;26342;42.826;23.992;2023-02-01T01:41:14;95370.38;;;0.66;100.00
40650;BME280;26342;42.826;23.992;2023-02-01T01:43:47;95366.75;;;0.67;100.00
40650;BME280;26342;42.826;23.992;2023-02-01T01:46:20;95369.53;;;0.59;100.00
40650;BME280;26342;42.826;23.992;2023-02-01T01:48:49;95345.78;;;0.39;100.00
40650;BME280;26342;42.826;23.992;2023-02-01T01:51:17;95360.38;;;0.42;100.00
40650;BME280;26342;42.826;23.992;2023-02-01T01:54:02;95357.66;;;0.28;100.00
40650;BME280;26342;42.826;23.992;2023-02-01T01:56:31;95361.00;;;0.16;100.00
40650;BME280;26342;42.826;23.992;2023-02-01T01:58:57;95360.19;;;0.15;100.00
40650;BME280;26342;42.826;23.992;2023-02-01T02:01:23;95363.66;;;0.22;100.00
40650;BME280;26342;42.826;23.992;2023-02-01T02:03:49;95358.22;;;0.17;100.00
40650;BME280;26342;42.826;23.992;2023-02-01T02:08:57;95357.66;;;-0.06;100.00
40650;BME280;26342;42.826;23.992;2023-02-01T02:11:23;95369.94;;;-0.07;100.00
40650;BME280;26342;42.826;23.992;2023-02-01T02:13:51;95378.44;;;-0.05;100.00
40650;BME280;26342;42.826;23.992;2023-02-01T02:19:28;95378.44;;;-0.05;100.00
40650;BME280;26342;42.826;23.992;2023-02-01T02:39:09;95366.00;;;-0.67;100.00
40650;BME280;26342;42.826;23.992;2023-02-01T02:44:56;95352.00;;;-0.95;100.00
40650;BME280;26342;42.826;23.992;2023-02-01T02:50:20;95352.72;;;-0.87;100.00
40650;BME280;26342;42.826;23.992;2023-02-01T02:53:15;95359.59;;;-0.86;100.00
40650;BME280;26342;42.826;23.992;2023-02-01T02:56:01;95361.41;;;-0.86;100.00
40650;BME280;26342;42.826;23.992;2023-02-01T02:58:47;95358.22;;;-1.18;100.00
40650;BME280;26342;42.826;23.992;2023-02-01T03:01:32;95360.69;;;-1.31;100.00
40650;BME280;26342;42.826;23.992;2023-02-01T03:04:16;95363.69;;;-1.34;100.00
40650;BME280;26342;42.826;23.992;2023-02-01T03:06:46;95361.22;;;-1.35;100.00
40650;BME280;26342;42.826;23.992;2023-02-01T03:09:26;95368.97;;;-1.27;100.00
40650;BME280;26342;42.826;23.992;2023-02-01T03:11:57;95375.56;;;-1.17;100.00
40650;BME280;26342;42.826;23.992;2023-02-01T03:14:47;95372.56;;;-1.14;100.00
40650;BME280;26342;42.826;23.992;2023-02-01T03:17:17;95372.16;;;-0.96;100.00
40650;BME280;26342;42.826;23.992;2023-02-01T03:19:46;95364.88;;;-1.00;100.00
40650;BME280;26342;42.826;23.992;2023-02-01T03:22:27;95384.31;;;-0.88;100.00
40650;BME280;26342;42.826;23.992;2023-02-01T03:25:22;95384.84;;;-0.78;100.00
40650;BME280;26342;42.826;23.992;2023-02-01T03:27:55;95395.38;;;-0.71;100.00
40650;BME280;26342;42.826;23.992;2023-02-01T03:30:24;95394.75;;;-0.73;100.00
40650;BME280;26342;42.826;23.992;2023-02-01T03:32:54;95398.00;;;-0.71;100.00
40650;BME280;26342;42.826;23.992;2023-02-01T03:38:32;95388.28;;;-0.77;100.00
40650;BME280;26342;42.826;23.992;2023-02-01T03:41:20;95385.69;;;-0.92;100.00
40650;BME280;26342;42.826;23.992;2023-02-01T03:46:39;95380.22;;;-1.12;100.00
40650;BME280;26342;42.826;23.992;2023-02-01T03:49:09;95379.34;;;-1.19;100.00
40650;BME280;26342;42.826;23.992;2023-02-01T03:51:38;95379.44;;;-1.27;100.00
40650;BME280;26342;42.826;23.992;2023-02-01T03:54:06;95388.88;;;-1.33;100.00
40650;BME280;26342;42.826;23.992;2023-02-01T03:56:37;95381.63;;;-1.31;100.00
40650;BME280;26342;42.826;23.992;2023-02-01T03:59:03;95382.97;;;-1.35;100.00
40650;BME280;26342;42.826;23.992;2023-02-01T04:01:30;95385.69;;;-1.43;100.00
40650;BME280;26342;42.826;23.992;2023-02-01T04:03:57;95375.22;;;-1.43;100.00
40650;BME280;26342;42.826;23.992;2023-02-01T04:06:23;95383.63;;;-1.33;100.00
40650;BME280;26342;42.826;23.992;2023-02-01T04:08:49;95375.66;;;-1.25;100.00
40650;BME280;26342;42.826;23.992;2023-02-01T04:11:15;95370.31;;;-1.17;100.00
40650;BME280;26342;42.826;23.992;2023-02-01T04:13:40;95372.94;;;-1.17;100.00
40650;BME280;26342;42.826;23.992;2023-02-01T04:16:06;95373.38;;;-1.13;100.00
40650;BME280;26342;42.826;23.992;2023-02-01T04:18:31;95375.19;;;-1.14;100.00
40650;BME280;26342;42.826;23.992;2023-02-01T04:20:57;95373.38;;;-1.13;100.00
40650;BME280;26342;42.826;23.992;2023-02-01T04:23:22;95373.19;;;-1.12;100.00
40650;BME280;26342;42.826;23.992;2023-02-01T04:25:47;95371.84;;;-1.22;100.00
40650;BME280;26342;42.826;23.992;2023-02-01T04:28:13;95365.09;;;-1.17;100.00
40650;BME280;26342;42.826;23.992;2023-02-01T04:30:38;95376.00;;;-1.13;100.00
40650;BME280;26342;42.826;23.992;2023-02-01T04:33:04;95381.69;;;-1.09;100.00
40650;BME280;26342;42.826;23.992;2023-02-01T04:35:33;95377.81;;;-1.14;100.00
40650;BME280;26342;42.826;23.992;2023-02-01T04:37:58;95375.81;;;-1.12;100.00
40650;BME280;26342;42.826;23.992;2023-02-01T04:40:24;95390.88;;;-0.99;100.00
40650;BME280;26342;42.826;23.992;2023-02-01T04:42:49;95379.84;;;-0.94;100.00
40650;BME280;26342;42.826;23.992;2023-02-01T04:45:15;95388.41;;;-0.86;100.00
40650;BME280;26342;42.826;23.992;2023-02-01T04:47:40;95377.91;;;-0.86;100.00
40650;BME280;26342;42.826;23.992;2023-02-01T04:50:06;95382.50;;;-0.88;100.00
40650;BME280;26342;42.826;23.992;2023-02-01T04:52:35;95389.28;;;-0.78;100.00
40650;BME280;26342;42.826;23.992;2023-02-01T04:55:00;95382.50;;;-0.88;100.00
40650;BME280;26342;42.826;23.992;2023-02-01T04:57:28;95379.72;;;-0.86;100.00
40650;BME280;26342;42.826;23.992;2023-02-01T04:59:53;95383.78;;;-0.83;100.00
40650;BME280;26342;42.826;23.992;2023-02-01T05:02:18;95381.97;;;-0.83;100.00
40650;BME280;26342;42.826;23.992;2023-02-01T05:04:44;95394.13;;;-0.75;100.00
40650;BME280;26342;42.826;23.992;2023-02-01T05:07:09;95392.75;;;-0.71;100.00
40650;BME280;26342;42.826;23.992;2023-02-01T05:09:35;95396.44;;;-0.66;100.00
40650;BME280;26342;42.826;23.992;2023-02-01T05:12:00;95392.66;;;-0.63;100.00
40650;BME280;26342;42.826;23.992;2023-02-01T05:14:44;95369.94;;;-0.77;100.00
40650;BME280;26342;42.826;23.992;2023-02-01T05:17:09;95390.66;;;-0.61;100.00
40650;BME280;26342;42.826;23.992;2023-02-01T05:19:35;95399.41;;;-0.54;100.00
40650;BME280;26342;42.826;23.992;2023-02-01T05:22:00;95395.59;;;-0.51;100.00
40650;BME280;26342;42.826;23.992;2023-02-01T05:24:25;95406.94;;;-0.44;100.00
40650;BME280;26342;42.826;23.992;2023-02-01T05:26:52;95403.13;;;-0.42;100.00
40650;BME280;26342;42.826;23.992;2023-02-01T05:29:18;95398.75;;;-0.35;100.00
40650;BME280;26342;42.826;23.992;2023-02-01T05:31:44;95403.38;;;-0.37;100.00
40650;BME280;26342;42.826;23.992;2023-02-01T05:34:10;95415.50;;;-0.36;100.00
40650;BME280;26342;42.826;23.992;2023-02-01T05:36:36;95408.06;;;-0.32;100.00
40650;BME280;26342;42.826;23.992;2023-02-01T05:39:02;95406.44;;;-0.33;100.00
40650;BME280;26342;42.826;23.992;2023-02-01T05:41:28;95410.94;;;-0.27;100.00
40650;BME280;26342;42.826;23.992;2023-02-01T05:43:53;95412.13;;;-0.30;100.00
40650;BME280;26342;42.826;23.992;2023-02-01T05:46:19;95409.50;;;-0.30;100.00
40650;BME280;26342;42.826;23.992;2023-02-01T05:48:44;95406.81;;;-0.36;100.00
40650;BME280;26342;42.826;23.992;2023-02-01T05:51:10;95419.38;;;-0.53;100.00
40650;BME280;26342;42.826;23.992;2023-02-01T05:53:36;95414.59;;;-0.64;100.00
40650;BME280;26342;42.826;23.992;2023-02-01T05:56:01;95407.94;;;-0.67;100.00
40650;BME280;26342;42.826;23.992;2023-02-01T05:58:27;95420.50;;;-0.62;100.00
40650;BME280;26342;42.826;23.992;2023-02-01T06:00:52;95413.66;;;-0.57;100.00
40650;BME280;26342;42.826;23.992;2023-02-01T06:03:18;95421.59;;;-0.50;100.00
40650;BME280;26342;42.826;23.992;2023-02-01T06:05:45;95423.00;;;-0.54;100.00
40650;BME280;26342;42.826;23.992;2023-02-01T06:08:11;95424.97;;;-0.56;100.00
40650;BME280;26342;42.826;23.992;2023-02-01T06:10:37;95417.38;;;-0.51;100.00
40650;BME280;26342;42.826;23.992;2023-02-01T06:13:02;95416.28;;;-0.57;100.00
40650;BME280;26342;42.826;23.992;2023-02-01T06:15:29;95424.84;;;-0.48;100.00
40650;BME280;26342;42.826;23.992;2023-02-01T06:17:55;95423.50;;;-0.44;100.00
40650;BME280;26342;42.826;23.992;2023-02-01T06:20:20;95428.19;;;-0.39;100.00
40650;BME280;26342;42.826;23.992;2023-02-01T06:22:45;95438.91;;;-0.34;100.00
40650;BME280;26342;42.826;23.992;2023-02-01T06:25:11;95429.81;;;-0.38;100.00
40650;BME280;26342;42.826;23.992;2023-02-01T06:27:37;95433.31;;;-0.31;100.00
40650;BME280;26342;42.826;23.992;2023-02-01T06:30:04;95437.78;;;-0.25;100.00
40650;BME280;26342;42.826;23.992;2023-02-01T06:32:29;95439.22;;;-0.22;100.00
40650;BME280;26342;42.826;23.992;2023-02-01T06:34:55;95434.16;;;-0.24;100.00
40650;BME280;26342;42.826;23.992;2023-02-01T06:37:23;95432.78;;;-0.20;100.00
40650;BME280;26342;42.826;23.992;2023-02-01T06:39:50;95442.84;;;-0.23;100.00
40650;BME280;26342;42.826;23.992;2023-02-01T06:42:15;95449.72;;;-0.22;100.00
40650;BME280;26342;42.826;23.992;2023-02-01T06:44:41;95453.03;;;-0.14;100.00
40650;BME280;26342;42.826;23.992;2023-02-01T06:47:06;95445.22;;;-0.07;100.00
40650;BME280;26342;42.826;23.992;2023-02-01T06:49:31;95450.13;;;0.03;100.00
40650;BME280;26342;42.826;23.992;2023-02-01T06:51:57;95447.13;;;0.06;100.00
40650;BME280;26342;42.826;23.992;2023-02-01T06:54:25;95456.25;;;0.10;100.00
40650;BME280;26342;42.826;23.992;2023-02-01T06:56:51;95430.00;;;0.10;100.00
40650;BME280;26342;42.826;23.992;2023-02-01T06:59:16;95444.84;;;0.24;100.00
40650;BME280;26342;42.826;23.992;2023-02-01T07:01:41;95455.38;;;0.31;100.00
40650;BME280;26342;42.826;23.992;2023-02-01T07:04:10;95461.03;;;0.27;100.00
40650;BME280;26342;42.826;23.992;2023-02-01T07:06:36;95467.47;;;0.25;100.00
40650;BME280;26342;42.826;23.992;2023-02-01T07:09:01;95453.97;;;0.07;100.00
40650;BME280;26342;42.826;23.992;2023-02-01T07:11:26;95459.28;;;-0.15;100.00
40650;BME280;26342;42.826;23.992;2023-02-01T07:13:53;95458.56;;;-0.02;100.00
40650;BME280;26342;42.826;23.992;2023-02-01T07:16:19;95477.84;;;-0.10;100.00
40650;BME280;26342;42.826;23.992;2023-02-01T07:18:44;95474.63;;;-0.12;100.00
40650;BME280;26342;42.826;23.992;2023-02-01T07:21:10;95475.63;;;-0.13;100.00
40650;BME280;26342;42.826;23.992;2023-02-01T07:23:36;95481.75;;;-0.06;100.00
40650;BME280;26342;42.826;23.992;2023-02-01T07:26:03;95487.22;;;-0.01;100.00
40650;BME280;26342;42.826;23.992;2023-02-01T07:28:31;95490.97;;;0.12;100.00
40650;BME280;26342;42.826;23.992;2023-02-01T07:31:10;95496.69;;;0.22;100.00
40650;BME280;26342;42.826;23.992;2023-02-01T07:33:36;95498.84;;;0.33;100.00
40650;BME280;26342;42.826;23.992;2023-02-01T07:36:05;95491.81;;;0.40;100.00
40650;BME280;26342;42.826;23.992;2023-02-01T07:38:31;95491.81;;;0.40;100.00
40650;BME280;26342;42.826;23.992;2023-02-01T07:40:58;95498.91;;;0.46;100.00
40650;BME280;26342;42.826;23.992;2023-02-01T07:43:24;95501.22;;;0.56;100.00
40650;BME280;26342;42.826;23.992;2023-02-01T07:45:51;95502.84;;;0.57;100.00
40650;BME280;26342;42.826;23.992;2023-02-01T07:48:17;95501.78;;;0.51;100.00
40650;BME280;26342;42.826;23.992;2023-02-01T07:50:43;95514.81;;;0.66;100.00
40650;BME280;26342;42.826;23.992;2023-02-01T07:53:08;95514.00;;;0.66;100.00
40650;BME280;26342;42.826;23.992;2023-02-01T07:55:37;95504.53;;;0.65;100.00
40650;BME280;26342;42.826;23.992;2023-02-01T07:58:02;95507.75;;;0.67;100.00
40650;BME280;26342;42.826;23.992;2023-02-01T08:00:28;95504.97;;;0.75;100.00
40650;BME280;26342;42.826;23.992;2023-02-01T08:03:12;95515.13;;;0.84;100.00
40650;BME280;26342;42.826;23.992;2023-02-01T08:05:37;95508.13;;;0.92;100.00
40650;BME280;26342;42.826;23.992;2023-02-01T08:08:03;95517.03;;;0.97;100.00
40650;BME280;26342;42.826;23.992;2023-02-01T08:10:28;95509.16;;;0.97;100.00
40650;BME280;26342;42.826;23.992;2023-02-01T08:12:58;95509.16;;;0.97;100.00
40650;BME280;26342;42.826;23.992;2023-02-01T08:15:25;95512.00;;;1.02;100.00
40650;BME280;26342;42.826;23.992;2023-02-01T08:17:51;95507.19;;;1.06;100.00
40650;BME280;26342;42.826;23.992;2023-02-01T08:20:18;95504.19;;;1.16;100.00
40650;BME280;26342;42.826;23.992;2023-02-01T08:22:44;95500.00;;;1.21;100.00
40650;BME280;26342;42.826;23.992;2023-02-01T08:25:10;95509.09;;;1.25;100.00
40650;BME280;26342;42.826;23.992;2023-02-01T08:27:36;95515.59;;;1.29;100.00
40650;BME280;26342;42.826;23.992;2023-02-01T08:30:03;95522.31;;;1.38;100.00
40650;BME280;26342;42.826;23.992;2023-02-01T08:32:29;95509.59;;;1.49;100.00
40650;BME280;26342;42.826;23.992;2023-02-01T08:34:54;95509.41;;;1.57;100.00
40650;BME280;26342;42.826;23.992;2023-02-01T08:37:20;95508.44;;;1.64;100.00
40650;BME280;26342;42.826;23.992;2023-02-01T08:39:45;95510.22;;;1.57;100.00
40650;BME280;26342;42.826;23.992;2023-02-01T08:42:12;95514.28;;;1.53;100.00
40650;BME280;26342;42.826;23.992;2023-02-01T08:44:56;95516.53;;;1.63;100.00
40650;BME280;26342;42.826;23.992;2023-02-01T08:47:22;95508.25;;;1.66;100.00
40650;BME280;26342;42.826;23.992;2023-02-01T08:49:47;95514.34;;;1.80;100.00
40650;BME280;26342;42.826;23.992;2023-02-01T08:52:13;95521.22;;;1.74;100.00
40650;BME280;26342;42.826;23.992;2023-02-01T08:54:39;95524.47;;;1.76;100.00
40650;BME280;26342;42.826;23.992;2023-02-01T08:57:06;95519.22;;;1.83;100.00
40650;BME280;26342;42.826;23.992;2023-02-01T08:59:31;95518.81;;;1.86;100.00
40650;BME280;26342;42.826;23.992;2023-02-01T09:01:57;95519.22;;;1.83;100.00
40650;BME280;26342;42.826;23.992;2023-02-01T09:04:22;95527.72;;;1.85;100.00
40650;BME280;26342;42.826;23.992;2023-02-01T09:06:47;95524.91;;;1.86;100.00
40650;BME280;26342;42.826;23.992;2023-02-01T09:09:13;95517.78;;;1.80;100.00
40650;BME280;26342;42.826;23.992;2023-02-01T09:11:38;95515.97;;;1.81;100.00
40650;BME280;26342;42.826;23.992;2023-02-01T09:14:04;95522.25;;;1.80;100.00
40650;BME280;26342;42.826;23.992;2023-02-01T09:16:29;95522.88;;;1.82;100.00
40650;BME280;26342;42.826;23.992;2023-02-01T09:18:55;95525.25;;;1.70;100.00
40650;BME280;26342;42.826;23.992;2023-02-01T09:21:20;95509.28;;;1.72;100.00
40650;BME280;26342;42.826;23.992;2023-02-01T09:23:45;95515.97;;;1.81;100.00
40650;BME280;26342;42.826;23.992;2023-02-01T09:26:13;95510.31;;;1.84;100.00
40650;BME280;26342;42.826;23.992;2023-02-01T09:28:39;95510.94;;;1.86;100.00
40650;BME280;26342;42.826;23.992;2023-02-01T09:31:04;95508.09;;;1.74;100.00
40650;BME280;26342;42.826;23.992;2023-02-01T09:33:30;95514.91;;;1.62;100.00
40650;BME280;26342;42.826;23.992;2023-02-01T09:36:00;95500.94;;;1.61;100.00
40650;BME280;26342;42.826;23.992;2023-02-01T09:38:26;95504.41;;;1.68;100.00
40650;BME280;26342;42.826;23.992;2023-02-01T09:40:53;95507.81;;;1.56;100.00
40650;BME280;26342;42.826;23.992;2023-02-01T09:43:40;95502.97;;;1.59;100.00
40650;BME280;26342;42.826;23.992;2023-02-01T09:48:46;95504.94;;;1.44;100.00
40650;BME280;26342;42.826;23.992;2023-02-01T09:51:26;95502.50;;;1.49;100.00
40650;BME280;26342;42.826;23.992;2023-02-01T09:54:11;95494.47;;;1.64;100.00
40650;BME280;26342;42.826;23.992;2023-02-01T09:56:47;95489.44;;;1.69;100.00
40650;BME280;26342;42.826;23.992;2023-02-01T10:02:33;95486.84;;;1.82;100.00
40650;BME280;26342;42.826;23.992;2023-02-01T10:05:01;95473.31;;;1.92;100.00
40650;BME280;26342;42.826;23.992;2023-02-01T10:10:17;95472.31;;;2.06;100.00
40650;BME280;26342;42.826;23.992;2023-02-01T10:26:26;95459.94;;;2.60;100.00
40650;BME280;26342;42.826;23.992;2023-02-01T10:28:56;95458.78;;;3.20;100.00
40650;BME280;26342;42.826;23.992;2023-02-01T10:31:26;95445.59;;;3.20;100.00
40650;BME280;26342;42.826;23.992;2023-02-01T10:34:06;95444.56;;;3.21;100.00
40650;BME280;26342;42.826;23.992;2023-02-01T10:36:35;95427.94;;;3.21;100.00
40650;BME280;26342;42.826;23.992;2023-02-01T10:39:03;95428.94;;;3.26;100.00
40650;BME280;26342;42.826;23.992;2023-02-01T10:41:34;95419.56;;;3.30;100.00
40650;BME280;26342;42.826;23.992;2023-02-01T10:44:03;95419.50;;;3.50;100.00
40650;BME280;26342;42.826;23.992;2023-02-01T10:46:30;95434.81;;;3.98;100.00
40650;BME280;26342;42.826;23.992;2023-02-01T10:48:56;95427.88;;;4.54;100.00
40650;BME280;26342;42.826;23.992;2023-02-01T10:51:28;95426.00;;;4.61;100.00
40650;BME280;26342;42.826;23.992;2023-02-01T10:54:03;95413.63;;;4.98;100.00
40650;BME280;26342;42.826;23.992;2023-02-01T10:56:37;95417.56;;;5.07;100.00
40650;BME280;26342;42.826;23.992;2023-02-01T10:59:05;95423.88;;;4.88;100.00
40650;BME280;26342;42.826;23.992;2023-02-01T11:01:37;95422.50;;;4.85;100.00
40650;BME280;26342;42.826;23.992;2023-02-01T11:04:08;95414.91;;;4.70;100.00
40650;BME280;26342;42.826;23.992;2023-02-01T11:06:37;95417.03;;;4.62;100.00
40650;BME280;26342;42.826;23.992;2023-02-01T11:11:32;95412.94;;;4.41;100.00
40650;BME280;26342;42.826;23.992;2023-02-01T11:14:00;95412.34;;;4.39;100.00
40650;BME280;26342;42.826;23.992;2023-02-01T11:16:50;95407.81;;;4.46;100.00
40650;BME280;26342;42.826;23.992;2023-02-01T11:19:17;95405.34;;;4.51;100.00
40650;BME280;26342;42.826;23.992;2023-02-01T11:21:44;95394.56;;;4.53;100.00
40650;BME280;26342;42.826;23.992;2023-02-01T11:24:34;95383.88;;;4.41;100.00
40650;BME280;26342;42.826;23.992;2023-02-01T11:27:05;95397.84;;;4.48;100.00
40650;BME280;26342;42.826;23.992;2023-02-01T11:29:39;95398.06;;;4.46;100.00
40650;BME280;26342;42.826;23.992;2023-02-01T11:32:07;95396.28;;;4.40;100.00
40650;BME280;26342;42.826;23.992;2023-02-01T11:37:27;95397.16;;;4.34;100.00
40650;BME280;26342;42.826;23.992;2023-02-01T11:39:58;95384.50;;;4.43;100.00
40650;BME280;26342;42.826;23.992;2023-02-01T11:42:25;95385.50;;;4.42;100.00
40650;BME280;26342;42.826;23.992;2023-02-01T11:47:53;95394.25;;;4.42;100.00
40650;BME280;26342;42.826;23.992;2023-02-01T11:59:21;95381.19;;;4.66;100.00
40650;BME280;26342;42.826;23.992;2023-02-01T12:07:22;95366.75;;;4.87;100.00
40650;BME280;26342;42.826;23.992;2023-02-01T12:12:35;95371.00;;;5.06;100.00
40650;BME280;26342;42.826;23.992;2023-02-01T12:32:00;95363.44;;;5.40;100.00
40650;BME280;26342;42.826;23.992;2023-02-01T12:34:51;95364.56;;;5.32;100.00
40650;BME280;26342;42.826;23.992;2023-02-01T12:42:58;95359.47;;;5.60;100.00
40650;BME280;26342;42.826;23.992;2023-02-01T12:45:31;95363.84;;;5.55;100.00
40650;BME280;26342;42.826;23.992;2023-02-01T12:48:05;95365.53;;;5.49;100.00
40650;BME280;26342;42.826;23.992;2023-02-01T12:50:43;95362.91;;;5.49;100.00
40650;BME280;26342;42.826;23.992;2023-02-01T12:53:14;95362.75;;;5.44;100.00
40650;BME280;26342;42.826;23.992;2023-02-01T12:55:50;95359.03;;;5.33;100.00
40650;BME280;26342;42.826;23.992;2023-02-01T12:58:27;95361.69;;;5.33;100.00
40650;BME280;26342;42.826;23.992;2023-02-01T13:01:20;95364.25;;;5.40;100.00
40650;BME280;26342;42.826;23.992;2023-02-01T13:03:53;95362.91;;;5.49;100.00
40650;BME280;26342;42.826;23.992;2023-02-01T13:06:32;95377.16;;;5.48;100.00
40650;BME280;26342;42.826;23.992;2023-02-01T13:11:44;95352.06;;;5.21;100.00
40650;BME280;26342;42.826;23.992;2023-02-01T13:14:30;95348.50;;;5.15;100.00
40650;BME280;26342;42.826;23.992;2023-02-01T13:20:02;95356.44;;;5.15;100.00
40650;BME280;26342;42.826;23.992;2023-02-01T13:22:43;95356.22;;;5.17;100.00
40650;BME280;26342;42.826;23.992;2023-02-01T13:25:35;95346.25;;;5.00;100.00
40650;BME280;26342;42.826;23.992;2023-02-01T13:28:12;95367.09;;;5.09;100.00
40650;BME280;26342;42.826;23.992;2023-02-01T13:30:57;95359.97;;;5.09;100.00
40650;BME280;26342;42.826;23.992;2023-02-01T13:39:06;95367.38;;;5.19;100.00
40650;BME280;26342;42.826;23.992;2023-02-01T13:41:58;95349.88;;;5.18;100.00
40650;BME280;26342;42.826;23.992;2023-02-01T13:44:39;95367.81;;;5.16;100.00
40650;BME280;26342;42.826;23.992;2023-02-01T13:49:43;95361.06;;;5.01;100.00
40650;BME280;26342;42.826;23.992;2023-02-01T13:52:25;95359.97;;;5.09;100.00
40650;BME280;26342;42.826;23.992;2023-02-01T13:55:14;95359.38;;;5.07;100.00
40650;BME280;26342;42.826;23.992;2023-02-01T13:57:41;95338.91;;;4.84;100.00
40650;BME280;26342;42.826;23.992;2023-02-01T14:00:27;95361.03;;;4.90;100.00
40650;BME280;26342;42.826;23.992;2023-02-01T14:24:02;95375.94;;;4.41;100.00
40650;BME280;26342;42.826;23.992;2023-02-01T14:26:41;95360.66;;;4.25;100.00
40650;BME280;26342;42.826;23.992;2023-02-01T14:37:25;95353.75;;;3.80;100.00
40650;BME280;26342;42.826;23.992;2023-02-01T14:39:59;95350.69;;;3.77;100.00
40650;BME280;26342;42.826;23.992;2023-02-01T14:50:37;95346.03;;;3.47;100.00
40650;BME280;26342;42.826;23.992;2023-02-01T14:55:59;95346.59;;;3.24;100.00
40650;BME280;26342;42.826;23.992;2023-02-01T14:58:38;95358.78;;;3.19;100.00
40650;BME280;26342;42.826;23.992;2023-02-01T15:04:08;95364.06;;;3.19;100.00
40650;BME280;26342;42.826;23.992;2023-02-01T15:09:14;95345.19;;;3.15;100.00
40650;BME280;26342;42.826;23.992;2023-02-01T15:12:04;95351.16;;;3.04;100.00
40650;BME280;26342;42.826;23.992;2023-02-01T15:15:05;95350.81;;;2.87;100.00
40650;BME280;26342;42.826;23.992;2023-02-01T15:17:34;95353.72;;;2.72;100.00
40650;BME280;26342;42.826;23.992;2023-02-01T15:20:20;95344.41;;;2.63;100.00
40650;BME280;26342;42.826;23.992;2023-02-01T15:23:00;95339.63;;;2.47;100.00
40650;BME280;26342;42.826;23.992;2023-02-01T15:25:34;95345.69;;;2.47;100.00
40650;BME280;26342;42.826;23.992;2023-02-01T15:28:02;95338.63;;;2.28;100.00
40650;BME280;26342;42.826;23.992;2023-02-01T15:30:30;95334.22;;;2.15;100.00
40650;BME280;26342;42.826;23.992;2023-02-01T15:35:42;95329.78;;;1.83;100.00
40650;BME280;26342;42.826;23.992;2023-02-01T15:41:10;95350.84;;;1.76;100.00
40650;BME280;26342;42.826;23.992;2023-02-01T15:46:24;95350.22;;;1.74;100.00
40650;BME280;26342;42.826;23.992;2023-02-01T15:48:54;95345.38;;;1.78;100.00
40650;BME280;26342;42.826;23.992;2023-02-01T15:51:22;95372.28;;;1.86;100.00
40650;BME280;26342;42.826;23.992;2023-02-01T15:53:54;95374.50;;;1.96;100.00